createdAt,value
2023-05-25T00:02:17.774Z,11.55
2023-05-25T00:07:21.499Z,12.55
2023-05-25T00:12:26.890Z,9.80
2023-05-25T00:17:30.615Z,11.90
2023-05-25T00:22:34.630Z,10.45
2023-05-25T00:27:40.081Z,10.77
2023-05-25T00:32:43.744Z,10.60
2023-05-25T00:37:47.569Z,12.48
2023-05-25T00:42:53.980Z,8.32
2023-05-25T00:47:58.603Z,12.75
2023-05-25T00:53:02.452Z,9.68
2023-05-25T00:58:08.695Z,12.88
2023-05-25T01:03:15.628Z,12.10
2023-05-25T01:08:22.728Z,13.10
2023-05-25T01:13:29.542Z,14.30
2023-05-25T01:18:33.244Z,14.70
2023-05-25T01:23:41.643Z,14.63
2023-05-25T01:28:50.383Z,12.50
2023-05-25T01:33:55.713Z,13.13
2023-05-25T01:39:01.425Z,11.75
2023-05-25T01:49:22.909Z,14.40
2023-05-25T01:54:36.398Z,11.85
2023-05-25T01:59:43.230Z,11.88
2023-05-25T02:04:47.965Z,13.35
2023-05-25T02:09:53.274Z,12.90
2023-05-25T02:14:56.957Z,9.38
2023-05-25T02:20:00.838Z,11.32
2023-05-25T02:25:06.968Z,12.85
2023-05-25T02:30:11.048Z,13.77
2023-05-25T02:35:14.801Z,11.48
2023-05-25T02:40:20.279Z,18.38
2023-05-25T02:45:23.932Z,15.48
2023-05-25T02:50:27.615Z,16.45
2023-05-25T02:55:32.917Z,14.52
2023-05-25T03:00:36.632Z,13.13
2023-05-25T03:05:40.350Z,12.95
2023-05-25T03:10:46.102Z,14.45
2023-05-25T03:20:52.621Z,13.02
2023-05-25T03:25:57.994Z,15.60
2023-05-25T03:31:01.705Z,12.77
2023-05-25T03:36:08.613Z,12.95
2023-05-25T03:41:13.994Z,14.32
2023-05-25T03:46:17.759Z,15.05
2023-05-25T03:51:21.451Z,12.85
2023-05-25T03:56:26.752Z,16.65
2023-05-25T04:01:30.417Z,12.45
2023-05-25T04:06:34.108Z,15.65
2023-05-25T04:11:39.427Z,11.77
2023-05-25T04:16:43.164Z,11.18
2023-05-25T04:21:46.963Z,13.80
2023-05-25T04:26:52.312Z,14.80
2023-05-25T04:31:55.986Z,9.68
2023-05-25T04:36:59.668Z,13.18
2023-05-25T04:42:05.286Z,13.27
2023-05-25T04:47:09.100Z,12.57
2023-05-25T04:52:12.972Z,12.10
2023-05-25T04:57:19.200Z,12.45
2023-05-25T05:02:23.700Z,13.63
2023-05-25T05:07:27.448Z,13.90
2023-05-25T05:12:32.800Z,13.02
2023-05-25T05:17:36.555Z,12.20
2023-05-25T05:22:40.268Z,13.73
2023-05-25T05:27:45.673Z,11.30
2023-05-25T05:32:49.406Z,11.90
2023-05-25T05:37:53.101Z,13.32
2023-05-25T05:42:58.391Z,10.25
2023-05-25T05:48:02.113Z,12.37
2023-05-25T05:53:06.130Z,15.52
2023-05-25T05:58:11.378Z,11.85
2023-05-25T06:03:15.150Z,15.57
2023-05-25T06:08:18.844Z,12.80
2023-05-25T06:13:24.186Z,9.95
2023-05-25T06:18:27.862Z,14.73
2023-05-25T06:23:31.619Z,14.85
2023-05-25T06:28:36.943Z,10.35
2023-05-25T06:33:40.619Z,13.53
2023-05-25T06:38:44.295Z,11.77
2023-05-25T06:43:49.640Z,12.77
2023-05-25T06:48:53.349Z,13.20
2023-05-25T06:53:57.045Z,15.82
2023-05-25T06:59:02.451Z,13.07
2023-05-25T07:04:06.241Z,15.37
2023-05-25T07:09:10.744Z,15.90
2023-05-25T07:14:16.070Z,16.73
2023-05-25T07:19:19.723Z,14.87
2023-05-25T07:24:23.375Z,18.10
2023-05-25T07:29:28.686Z,14.10
2023-05-25T07:34:32.533Z,13.67
2023-05-25T07:39:36.228Z,13.70
2023-05-25T07:44:44.276Z,16.80
2023-05-25T07:49:47.946Z,17.90
2023-05-25T07:54:51.657Z,15.93
2023-05-25T07:59:57.135Z,15.25
2023-05-25T08:05:00.816Z,22.93
2023-05-25T08:10:06.225Z,16.13
2023-05-25T08:15:11.786Z,20.53
2023-05-25T08:20:15.997Z,17.85
2023-05-25T08:25:19.901Z,18.73
2023-05-25T08:30:25.293Z,19.15
2023-05-25T08:35:28.935Z,19.37
2023-05-25T08:40:32.825Z,24.95
2023-05-25T08:45:49.336Z,20.35
2023-05-25T08:50:54.285Z,14.55
2023-05-25T08:55:58.249Z,17.30
2023-05-25T09:01:08.295Z,17.08
2023-05-25T09:06:12.155Z,18.73
2023-05-25T09:11:19.439Z,16.40
2023-05-25T09:16:37.909Z,17.67
2023-05-25T09:21:41.660Z,17.67
2023-05-25T09:26:47.685Z,18.77
2023-05-25T09:31:54.417Z,19.65
2023-05-25T09:36:58.614Z,16.85
2023-05-25T09:42:02.791Z,15.98
2023-05-25T09:47:08.795Z,17.50
2023-05-25T09:57:17.973Z,14.73
2023-05-25T10:02:23.364Z,20.85
2023-05-25T10:07:27.702Z,19.27
2023-05-25T10:12:32.303Z,15.27
2023-05-25T10:17:41.007Z,12.57
2023-05-25T10:22:49.064Z,15.95
2023-05-25T10:27:59.727Z,13.40
2023-05-25T10:33:05.834Z,15.20
2023-05-25T10:43:13.355Z,15.80
2023-05-25T10:48:18.922Z,17.20
2023-05-25T10:53:22.687Z,13.40
2023-05-25T10:58:29.128Z,12.57
2023-05-25T11:03:57.004Z,12.70
2023-05-25T11:09:02.413Z,15.32
2023-05-25T11:14:06.039Z,11.60
2023-05-25T11:19:16.482Z,13.05
2023-05-25T11:24:21.203Z,12.77
2023-05-25T11:29:25.176Z,15.52
2023-05-25T11:34:31.920Z,15.30
2023-05-25T11:39:35.628Z,13.52
2023-05-25T11:44:39.268Z,14.18
2023-05-25T11:49:45.285Z,13.63
2023-05-25T11:59:52.985Z,12.70
2023-05-25T12:05:01.451Z,8.48
2023-05-25T12:10:09.181Z,14.13
2023-05-25T12:15:14.404Z,9.88
2023-05-25T12:20:19.981Z,14.50
2023-05-25T12:25:23.876Z,11.43
2023-05-25T12:30:30.187Z,15.63
2023-05-25T12:35:46.791Z,13.02
2023-05-25T12:41:06.036Z,11.93
2023-05-25T12:46:10.128Z,9.80
2023-05-25T12:51:15.533Z,9.77
2023-05-25T12:56:19.214Z,12.00
2023-05-25T13:01:22.919Z,13.80
2023-05-25T13:06:28.278Z,10.73
2023-05-25T13:11:34.393Z,10.97
2023-05-25T13:21:43.526Z,10.25
2023-05-25T13:26:49.229Z,9.83
2023-05-25T13:31:54.466Z,10.43
2023-05-25T13:36:59.777Z,12.65
2023-05-25T13:42:03.440Z,11.73
2023-05-25T13:47:07.717Z,17.58
2023-05-25T13:52:13.217Z,16.67
2023-05-25T13:57:16.939Z,17.42
2023-05-25T14:02:20.649Z,11.98
2023-05-25T14:07:26.021Z,14.73
2023-05-25T14:12:29.679Z,9.27
2023-05-25T14:17:33.419Z,12.80
2023-05-25T14:22:38.766Z,15.77
2023-05-25T14:27:42.426Z,16.63
2023-05-25T14:32:46.059Z,13.82
2023-05-25T14:37:51.724Z,14.10
2023-05-25T14:42:55.480Z,13.90
2023-05-25T14:48:11.877Z,14.00
2023-05-25T14:53:21.617Z,12.40
2023-05-25T14:58:25.311Z,16.57
2023-05-25T15:03:29.109Z,12.00
2023-05-25T15:08:34.461Z,14.07
2023-05-25T15:13:38.108Z,12.30
2023-05-25T15:18:41.771Z,13.68
2023-05-25T15:23:47.071Z,10.05
2023-05-25T15:28:50.779Z,11.97
2023-05-25T15:33:58.541Z,14.55
2023-05-25T15:39:04.620Z,15.23
2023-05-25T15:44:08.724Z,11.55
2023-05-25T15:49:12.355Z,10.32
2023-05-25T15:54:17.687Z,10.70
2023-05-25T15:59:21.378Z,11.87
2023-05-25T16:04:25.001Z,11.15
2023-05-25T16:09:30.353Z,11.02
2023-05-25T16:14:34.070Z,12.90
2023-05-25T16:19:37.781Z,11.63
2023-05-25T16:24:44.062Z,12.70
2023-05-25T16:29:47.713Z,11.35
2023-05-25T16:34:51.375Z,11.10
2023-05-25T16:39:56.793Z,9.93
2023-05-25T16:45:00.504Z,11.75
2023-05-25T16:50:04.313Z,8.68
2023-05-25T16:55:11.779Z,9.63
2023-05-25T17:00:16.364Z,9.68
2023-05-25T17:05:20.054Z,10.55
2023-05-25T17:10:25.400Z,10.35
2023-05-25T17:15:29.111Z,9.15
2023-05-25T17:20:32.826Z,9.77
2023-05-25T17:25:38.185Z,10.90
2023-05-25T17:30:41.791Z,11.27
2023-05-25T17:35:45.538Z,9.45
2023-05-25T17:40:50.966Z,9.57
2023-05-25T17:45:55.478Z,7.45
2023-05-25T17:50:59.155Z,7.18
2023-05-25T17:56:04.497Z,7.13
2023-05-25T18:01:08.353Z,10.55
2023-05-25T18:06:12.288Z,7.55
2023-05-25T18:11:17.623Z,5.93
2023-05-25T18:16:21.369Z,7.83
2023-05-25T18:21:25.065Z,6.72
2023-05-25T18:26:30.338Z,7.50
2023-05-25T18:31:34.200Z,5.20
2023-05-25T18:36:37.928Z,8.23
2023-05-25T18:41:43.376Z,6.95
2023-05-25T18:46:47.078Z,7.40
2023-05-25T18:51:50.817Z,8.30
2023-05-25T18:56:56.132Z,8.32
2023-05-25T19:01:59.936Z,8.80
2023-05-25T19:07:03.578Z,7.10
2023-05-25T19:12:09.486Z,8.35
2023-05-25T19:17:13.174Z,7.60
2023-05-25T19:22:16.906Z,6.35
2023-05-25T19:27:22.193Z,6.40
2023-05-25T19:32:25.868Z,6.13
2023-05-25T19:37:29.531Z,5.97
2023-05-25T19:42:35.872Z,5.07
2023-05-25T19:47:39.557Z,7.10
2023-05-25T19:52:43.330Z,5.30
2023-05-25T19:57:48.652Z,6.60
2023-05-25T20:02:52.771Z,4.75
2023-05-25T20:07:56.454Z,7.28
2023-05-25T20:13:01.777Z,7.18
2023-05-25T20:18:05.581Z,9.57
2023-05-25T20:23:09.215Z,7.65
2023-05-25T20:28:14.523Z,9.07
2023-05-25T20:33:18.378Z,9.07
2023-05-25T20:38:22.042Z,13.05
2023-05-25T20:43:28.292Z,8.40
2023-05-25T20:48:31.947Z,11.48
2023-05-25T20:53:35.582Z,9.23
2023-05-25T20:58:40.918Z,7.18
2023-05-25T21:03:44.807Z,5.28
2023-05-25T21:08:48.557Z,7.15
2023-05-25T21:13:53.880Z,6.03
2023-05-25T21:18:57.525Z,6.20
2023-05-25T21:24:01.440Z,5.72
2023-05-25T21:29:06.788Z,8.40
2023-05-25T21:34:10.453Z,6.82
2023-05-25T21:39:14.804Z,9.60
2023-05-25T21:44:20.098Z,6.90
2023-05-25T21:49:23.750Z,4.65
2023-05-25T21:54:27.419Z,4.95
2023-05-25T21:59:32.743Z,5.57
2023-05-25T22:04:36.418Z,5.70
2023-05-25T22:09:40.754Z,5.93
2023-05-25T22:14:46.083Z,6.03
2023-05-25T22:20:03.197Z,4.43
2023-05-25T22:25:11.504Z,6.63
2023-05-25T22:30:17.955Z,5.57
2023-05-25T22:35:21.844Z,5.65
2023-05-25T22:40:25.618Z,5.93
2023-05-25T22:45:30.971Z,7.57
2023-05-25T22:50:34.786Z,5.53
2023-05-25T22:55:38.441Z,4.10
2023-05-25T23:00:43.752Z,5.10
2023-05-25T23:05:47.610Z,7.40
2023-05-25T23:10:51.474Z,8.82
2023-05-25T23:15:56.828Z,5.97
2023-05-25T23:21:00.478Z,6.88
2023-05-25T23:26:04.177Z,7.32
2023-05-25T23:31:09.560Z,6.70
2023-05-25T23:36:13.236Z,7.43
2023-05-25T23:41:16.982Z,6.30
2023-05-25T23:46:22.380Z,8.25
2023-05-25T23:51:26.289Z,7.25
2023-05-25T23:56:29.931Z,6.78
